Time,TemperatureF,DewpointF,PressureIn,WindDirection,WindDirectionDegrees,WindSpeedMPH,WindSpeedGustMPH,Humidity,HourlyPrecipIn,Conditions,Clouds,dailyrainin,SolarRadiationWatts/m^2,SoftwareType,DateUTC
2013-08-31 00:01:00,86.2,67.1,29.94,South,177,6.9,6.9,53,0.00,CLR,,0.00,1.0,WeatherDisplay:10.37,2013-08-31 05:01:00,
2013-08-31 00:06:00,86.2,67.1,29.94,SSE,150,4.6,4.6,53,0.00,CLR,,0.00,1.0,WeatherDisplay:10.37,2013-08-31 05:06:00,
2013-08-31 00:11:00,86.1,67.0,29.94,SSE,150,4.6,4.6,53,0.00,CLR,,0.00,1.0,WeatherDisplay:10.37,2013-08-31 05:11:00,
2013-08-31 00:16:00,86.0,67.4,29.93,SSE,163,5.8,5.8,54,0.00,CLR,,0.00,1.0,WeatherDisplay:10.37,2013-08-31 05:16:00,
2013-08-31 00:22:00,85.9,67.3,29.93,SE,146,6.9,6.9,54,0.00,CLR,,0.00,1.0,WeatherDisplay:10.37,2013-08-31 05:22:00,
2013-08-31 00:26:00,85.9,66.8,29.93,SE,146,5.8,5.8,53,0.00,CLR,,0.00,1.0,WeatherDisplay:10.37,2013-08-31 05:26:00,
2013-08-31 00:32:00,85.8,66.7,29.93,SE,142,6.0,6.0,53,0.00,CLR,,0.00,1.0,WeatherDisplay:10.37,2013-08-31 05:32:00,
2013-08-31 00:37:00,85.8,67.2,29.93,SSE,156,8.1,8.1,54,0.00,CLR,,0.00,1.0,WeatherDisplay:10.37,2013-08-31 05:37:00,
2013-08-31 00:42:00,85.6,67.0,29.93,SSE,158,4.6,4.6,54,0.00,CLR,,0.00,2.0,WeatherDisplay:10.37,2013-08-31 05:42:00,
2013-08-31 00:47:00,85.5,67.0,29.93,SSE,154,5.8,5.8,54,0.00,CLR,,0.00,1.0,WeatherDisplay:10.37,2013-08-31 05:47:00,
2013-08-31 00:52:00,85.3,67.3,29.93,SSE,153,5.8,5.8,55,0.00,CLR,,0.00,1.0,WeatherDisplay:10.37,2013-08-31 05:52:00,
2013-08-31 00:57:00,85.2,67.2,29.93,SSE,149,5.8,5.8,55,0.00,CLR,,0.00,2.0,WeatherDisplay:10.37,2013-08-31 05:57:00,
2013-08-31 01:02:00,85.1,67.6,29.93,SSE,148,5.8,5.8,56,0.00,CLR,,0.00,2.0,WeatherDisplay:10.37,2013-08-31 06:02:00,
2013-08-31 01:07:00,85.0,67.5,29.93,SSE,149,4.8,4.8,56,0.00,CLR,,0.00,1.0,WeatherDisplay:10.37,2013-08-31 06:07:00,
2013-08-31 01:12:00,84.8,67.4,29.93,SSE,151,4.6,4.6,56,0.00,CLR,,0.00,1.0,WeatherDisplay:10.37,2013-08-31 06:12:00,
2013-08-31 01:17:00,84.7,67.3,29.93,SSE,151,4.6,4.6,56,0.00,CLR,,0.00,1.0,WeatherDisplay:10.37,2013-08-31 06:17:00,
2013-08-31 01:22:00,84.6,67.2,29.93,SSE,147,4.6,4.6,56,0.00,CLR,,0.00,1.0,WeatherDisplay:10.37,2013-08-31 06:22:00,
2013-08-31 01:27:00,84.5,67.6,29.93,SSE,160,5.8,5.8,57,0.00,CLR,,0.00,1.0,WeatherDisplay:10.37,2013-08-31 06:27:00,
2013-08-31 01:32:00,84.3,67.9,29.93,SSE,158,5.8,5.8,58,0.00,CLR,,0.00,1.0,WeatherDisplay:10.37,2013-08-31 06:32:00,
2013-08-31 01:37:00,84.1,67.7,29.93,SSE,159,5.8,5.8,58,0.00,CLR,,0.00,2.0,WeatherDisplay:10.37,2013-08-31 06:37:00,
2013-08-31 01:42:00,84.0,68.1,29.93,SSE,156,5.8,5.8,59,0.00,CLR,,0.00,1.0,WeatherDisplay:10.37,2013-08-31 06:42:00,
2013-08-31 01:47:00,83.8,67.9,29.93,South,178,6.0,6.0,59,0.00,CLR,,0.00,2.0,WeatherDisplay:10.37,2013-08-31 06:47:00,
2013-08-31 01:52:00,83.7,67.8,29.93,SE,146,6.9,6.9,59,0.00,CLR,,0.00,2.0,WeatherDisplay:10.37,2013-08-31 06:52:00,
2013-08-31 01:57:00,83.6,67.8,29.93,SSE,147,6.9,6.9,59,0.00,CLR,,0.00,1.0,WeatherDisplay:10.37,2013-08-31 06:57:00,
2013-08-31 02:02:00,83.5,68.2,29.93,SSE,157,4.6,4.6,60,0.00,CLR,,0.00,1.0,WeatherDisplay:10.37,2013-08-31 07:02:00,
2013-08-31 02:07:00,83.2,67.4,29.93,SE,145,5.1,5.1,59,0.00,CLR,,0.00,1.0,WeatherDisplay:10.37,2013-08-31 07:07:00,
2013-08-31 02:12:00,83.1,67.8,29.93,SE,126,5.8,5.8,60,0.00,CLR,,0.00,1.0,WeatherDisplay:10.37,2013-08-31 07:12:00,
2013-08-31 02:17:00,82.8,68.0,29.94,SSE,153,5.8,5.8,61,0.00,CLR,,0.00,1.0,WeatherDisplay:10.37,2013-08-31 07:17:00,
2013-08-31 02:22:00,82.7,67.4,29.94,SSE,151,6.9,6.9,60,0.00,CLR,,0.00,2.0,WeatherDisplay:10.37,2013-08-31 07:22:00,
2013-08-31 02:27:00,82.6,67.3,29.94,SSE,150,6.9,6.9,60,0.00,CLR,,0.00,1.0,WeatherDisplay:10.37,2013-08-31 07:27:00,
2013-08-31 02:32:00,82.5,67.7,29.94,SSE,168,5.8,5.8,61,0.00,CLR,,0.00,1.0,WeatherDisplay:10.37,2013-08-31 07:32:00,
2013-08-31 02:37:00,82.5,67.7,29.94,South,176,10.5,10.5,61,0.00,CLR,,0.00,1.0,WeatherDisplay:10.37,2013-08-31 07:37:00,
2013-08-31 02:42:00,82.4,67.6,29.94,South,176,10.4,10.4,61,0.00,CLR,,0.00,1.0,WeatherDisplay:10.37,2013-08-31 07:42:00,
2013-08-31 02:47:00,82.3,67.5,29.94,SSE,162,9.2,9.2,61,0.00,CLR,,0.00,1.0,WeatherDisplay:10.37,2013-08-31 07:47:00,
2013-08-31 02:52:00,82.1,67.8,29.94,SSE,160,5.8,5.8,62,0.00,CLR,,0.00,1.0,WeatherDisplay:10.37,2013-08-31 07:52:00,
2013-08-31 02:57:00,82.0,67.7,29.94,SSE,165,5.8,5.8,62,0.00,CLR,,0.00,1.0,WeatherDisplay:10.37,2013-08-31 07:57:00,
2013-08-31 03:02:00,81.8,68.0,29.94,SSE,147,4.6,4.6,63,0.00,CLR,,0.00,1.0,WeatherDisplay:10.37,2013-08-31 08:02:00,
2013-08-31 03:07:00,81.7,67.9,29.94,SSE,151,4.8,4.8,63,0.00,CLR,,0.00,2.0,WeatherDisplay:10.37,2013-08-31 08:07:00,
2013-08-31 03:12:00,81.4,68.1,29.95,SSE,161,5.8,5.8,64,0.00,CLR,,0.00,1.0,WeatherDisplay:10.37,2013-08-31 08:12:00,
2013-08-31 03:17:00,81.3,68.0,29.95,SSE,155,5.8,5.8,64,0.00,CLR,,0.00,1.0,WeatherDisplay:10.37,2013-08-31 08:17:00,
2013-08-31 03:22:00,81.1,68.2,29.95,SSE,161,6.9,6.9,65,0.00,CLR,,0.00,1.0,WeatherDisplay:10.37,2013-08-31 08:22:00,
2013-08-31 03:27:00,81.0,68.6,29.95,SSE,154,8.1,8.1,66,0.00,CLR,,0.00,1.0,WeatherDisplay:10.37,2013-08-31 08:27:00,
2013-08-31 03:32:00,80.8,68.4,29.95,SSE,168,5.8,5.8,66,0.00,CLR,,0.00,1.0,WeatherDisplay:10.37,2013-08-31 08:32:00,
2013-08-31 03:37:00,80.7,68.3,29.95,SSE,148,8.1,8.1,66,0.00,CLR,,0.00,1.0,WeatherDisplay:10.37,2013-08-31 08:37:00,
2013-08-31 03:42:00,80.5,68.1,29.95,SSE,159,5.8,5.8,66,0.00,CLR,,0.00,1.0,WeatherDisplay:10.37,2013-08-31 08:42:00,
2013-08-31 03:47:00,80.4,68.4,29.95,SSE,162,6.9,6.9,67,0.00,CLR,,0.00,1.0,WeatherDisplay:10.37,2013-08-31 08:47:00,
2013-08-31 03:52:00,80.3,68.3,29.95,SSE,166,9.2,9.2,67,0.00,CLR,,0.00,1.0,WeatherDisplay:10.37,2013-08-31 08:52:00,
2013-08-31 03:57:00,80.1,68.6,29.95,South,170,6.9,6.9,68,0.00,CLR,,0.00,1.0,WeatherDisplay:10.37,2013-08-31 08:57:00,
2013-08-31 04:02:00,80.0,68.5,29.95,SSE,164,5.8,5.8,68,0.00,CLR,,0.00,1.0,WeatherDisplay:10.37,2013-08-31 09:02:00,
2013-08-31 04:07:00,79.9,68.8,29.95,South,174,8.1,8.1,69,0.00,CLR,,0.00,1.0,WeatherDisplay:10.37,2013-08-31 09:07:00,
2013-08-31 04:12:00,79.8,68.7,29.95,SSE,167,8.1,8.1,69,0.00,CLR,,0.00,1.0,WeatherDisplay:10.37,2013-08-31 09:12:00,
2013-08-31 04:17:00,79.7,69.0,29.95,South,175,5.8,5.8,70,0.00,CLR,,0.00,1.0,WeatherDisplay:10.37,2013-08-31 09:17:00,
2013-08-31 04:22:00,79.6,69.0,29.95,South,176,8.1,8.1,70,0.00,CLR,,0.00,1.0,WeatherDisplay:10.37,2013-08-31 09:22:00,
2013-08-31 04:27:00,79.5,69.3,29.95,SSE,166,8.1,8.1,71,0.00,CLR,,0.00,1.0,WeatherDisplay:10.37,2013-08-31 09:27:00,
2013-08-31 04:32:00,79.4,69.2,29.95,SSE,161,9.2,9.2,71,0.00,CLR,,0.00,1.0,WeatherDisplay:10.37,2013-08-31 09:32:00,
2013-08-31 04:37:00,79.4,69.6,29.95,South,180,9.2,9.2,72,0.00,CLR,,0.00,1.0,WeatherDisplay:10.37,2013-08-31 09:37:00,
2013-08-31 04:42:00,79.3,69.5,29.95,SSW,199,9.2,9.2,72,0.00,CLR,,0.00,1.0,WeatherDisplay:10.37,2013-08-31 09:42:00,
2013-08-31 04:47:00,79.2,69.8,29.95,SSE,165,8.1,8.1,73,0.00,CLR,,0.00,1.0,WeatherDisplay:10.37,2013-08-31 09:47:00,
2013-08-31 04:53:00,79.1,70.1,29.95,SSE,163,8.1,8.1,74,0.00,CLR,,0.00,1.0,WeatherDisplay:10.37,2013-08-31 09:53:00,
2013-08-31 04:58:00,79.0,70.0,29.95,South,174,6.9,6.9,74,0.00,CLR,,0.00,0.0,WeatherDisplay:10.37,2013-08-31 09:58:00,
2013-08-31 05:03:00,78.9,70.3,29.95,SSE,167,6.9,6.9,75,0.00,CLR,,0.00,0.0,WeatherDisplay:10.37,2013-08-31 10:03:00,
2013-08-31 05:08:00,78.9,70.7,29.95,South,181,9.2,9.2,76,0.00,CLR,,0.00,1.0,WeatherDisplay:10.37,2013-08-31 10:08:00,
2013-08-31 05:13:00,78.9,70.7,29.95,SSE,157,8.1,8.1,76,0.00,CLR,,0.00,1.0,WeatherDisplay:10.37,2013-08-31 10:13:00,
2013-08-31 05:18:00,78.8,71.0,29.95,South,177,8.1,8.1,77,0.00,CLR,,0.00,2.0,WeatherDisplay:10.37,2013-08-31 10:18:00,
2013-08-31 05:23:00,78.7,71.3,29.95,South,177,8.1,8.1,78,0.00,CLR,,0.00,1.0,WeatherDisplay:10.37,2013-08-31 10:23:00,
2013-08-31 05:28:00,78.7,71.6,29.95,SSE,161,8.1,8.1,79,0.00,CLR,,0.00,1.0,WeatherDisplay:10.37,2013-08-31 10:28:00,
2013-08-31 05:33:00,78.7,71.6,29.95,South,174,9.2,9.2,79,0.00,CLR,,0.00,1.0,WeatherDisplay:10.37,2013-08-31 10:33:00,
2013-08-31 05:38:00,78.6,71.9,29.95,South,178,6.9,6.9,80,0.00,CLR,,0.00,1.0,WeatherDisplay:10.37,2013-08-31 10:38:00,
2013-08-31 05:43:00,78.6,71.9,29.95,SSE,164,8.1,8.1,80,0.00,CLR,,0.00,1.0,WeatherDisplay:10.37,2013-08-31 10:43:00,
2013-08-31 05:48:00,78.6,72.3,29.95,South,176,8.1,8.1,81,0.00,CLR,,0.00,1.0,WeatherDisplay:10.37,2013-08-31 10:48:00,
2013-08-31 05:53:00,78.6,72.3,29.95,South,172,8.1,8.1,81,0.00,CLR,,0.00,1.0,WeatherDisplay:10.37,2013-08-31 10:53:00,
2013-08-31 05:58:00,78.5,72.2,29.95,SSE,157,6.9,6.9,81,0.00,CLR,,0.00,1.0,WeatherDisplay:10.37,2013-08-31 10:58:00,
2013-08-31 06:03:00,78.5,72.5,29.95,SSE,162,5.8,5.8,82,0.00,CLR,,0.00,1.0,WeatherDisplay:10.37,2013-08-31 11:03:00,
2013-08-31 06:08:00,78.4,72.4,29.95,South,170,4.6,4.6,82,0.00,CLR,,0.00,1.0,WeatherDisplay:10.37,2013-08-31 11:08:00,
2013-08-31 06:13:00,78.4,72.4,29.95,SSE,168,5.1,5.1,82,0.00,CLR,,0.00,1.0,WeatherDisplay:10.37,2013-08-31 11:13:00,
2013-08-31 06:18:00,78.3,72.7,29.95,South,180,5.8,5.8,83,0.00,CLR,,0.00,1.0,WeatherDisplay:10.37,2013-08-31 11:18:00,
2013-08-31 06:23:00,78.2,72.6,29.96,South,171,6.0,6.0,83,0.00,CLR,,0.00,1.0,WeatherDisplay:10.37,2013-08-31 11:23:00,
2013-08-31 06:28:00,78.1,72.5,29.96,SSE,159,6.9,6.9,83,0.00,CLR,,0.00,1.0,WeatherDisplay:10.37,2013-08-31 11:28:00,
2013-08-31 06:33:00,78.1,72.9,29.96,SSE,167,6.9,6.9,84,0.00,OVC,,0.00,2.0,WeatherDisplay:10.37,2013-08-31 11:33:00,
2013-08-31 06:38:00,78.0,72.8,29.96,SSE,162,5.8,5.8,84,0.00,OVC,,0.00,2.0,WeatherDisplay:10.37,2013-08-31 11:38:00,
2013-08-31 06:43:00,77.9,72.7,29.96,SSE,155,5.8,5.8,84,0.00,OVC,,0.00,2.0,WeatherDisplay:10.37,2013-08-31 11:43:00,
2013-08-31 06:48:00,77.8,72.9,29.96,SSE,165,5.8,5.8,85,0.00,OVC,,0.00,2.0,WeatherDisplay:10.37,2013-08-31 11:48:00,
2013-08-31 06:53:00,77.7,72.8,29.96,SSE,167,4.6,4.6,85,0.00,OVC,,0.00,3.0,WeatherDisplay:10.37,2013-08-31 11:53:00,
2013-08-31 06:58:00,77.6,72.7,29.96,SSE,168,4.6,4.6,85,0.00,OVC,,0.00,5.0,WeatherDisplay:10.37,2013-08-31 11:58:00,
2013-08-31 07:03:00,77.6,73.1,29.96,SSE,162,4.6,4.6,86,0.00,OVC,,0.00,9.0,WeatherDisplay:10.37,2013-08-31 12:03:00,
2013-08-31 07:08:00,77.5,73.0,29.96,SSE,161,3.5,3.5,86,0.00,OVC,,0.00,19.0,WeatherDisplay:10.37,2013-08-31 12:08:00,
2013-08-31 07:13:00,77.4,73.2,29.97,SSE,153,4.6,4.6,87,0.00,OVC,,0.00,27.0,WeatherDisplay:10.37,2013-08-31 12:13:00,
2013-08-31 07:18:00,77.4,73.2,29.97,SSE,164,3.5,3.5,87,0.00,OVC,,0.00,39.0,WeatherDisplay:10.37,2013-08-31 12:18:00,
2013-08-31 07:23:00,77.4,73.6,29.97,South,174,5.8,5.8,88,0.00,OVC,,0.00,70.0,WeatherDisplay:10.37,2013-08-31 12:23:00,
2013-08-31 07:28:00,77.5,73.7,29.97,South,174,5.8,5.8,88,0.00,OVC,,0.00,112.0,WeatherDisplay:10.37,2013-08-31 12:28:00,
2013-08-31 07:33:00,77.5,73.7,29.97,SSE,165,5.8,5.8,88,0.00,OVC,,0.00,137.0,WeatherDisplay:10.37,2013-08-31 12:33:00,
2013-08-31 07:38:00,77.6,74.1,29.97,SSE,160,5.8,5.8,89,0.00,OVC,,0.00,150.0,WeatherDisplay:10.37,2013-08-31 12:38:00,
2013-08-31 07:43:00,77.7,74.2,29.97,SSE,154,3.6,3.6,89,0.00,OVC,,0.00,127.0,WeatherDisplay:10.37,2013-08-31 12:43:00,
2013-08-31 07:48:00,77.8,74.6,29.97,SSE,155,4.6,4.6,90,0.00,OVC,,0.00,140.0,WeatherDisplay:10.37,2013-08-31 12:48:00,
2013-08-31 07:53:00,77.9,74.7,29.97,South,184,6.9,6.9,90,0.00,OVC,,0.00,194.0,WeatherDisplay:10.37,2013-08-31 12:53:00,
2013-08-31 07:58:00,78.1,74.9,29.97,SSE,163,6.6,6.6,90,0.00,OVC,,0.00,217.0,WeatherDisplay:10.37,2013-08-31 12:58:00,
2013-08-31 08:03:00,78.3,75.1,29.97,SSE,162,5.8,6.2,90,0.00,OVC,,0.00,229.0,WeatherDisplay:10.37,2013-08-31 13:03:00,
2013-08-31 08:08:00,78.5,75.3,29.97,SSW,194,8.1,8.1,90,0.00,OVC,,0.00,243.0,WeatherDisplay:10.37,2013-08-31 13:08:00,
2013-08-31 08:13:00,78.8,75.6,29.98,SSW,194,9.2,9.2,90,0.00,OVC,,0.00,275.0,WeatherDisplay:10.37,2013-08-31 13:13:00,
2013-08-31 08:18:00,79.1,75.6,29.98,South,171,9.2,9.2,89,0.00,OVC,,0.00,296.0,WeatherDisplay:10.37,2013-08-31 13:18:00,
2013-08-31 08:23:00,79.4,75.9,29.98,SSW,202,9.2,9.2,89,0.00,OVC,,0.00,315.0,WeatherDisplay:10.37,2013-08-31 13:23:00,
2013-08-31 08:28:00,79.7,75.8,29.98,SSW,196,8.1,8.1,88,0.00,OVC,,0.00,332.0,WeatherDisplay:10.37,2013-08-31 13:28:00,
2013-08-31 08:33:00,80.1,75.9,29.98,SSE,166,9.2,9.2,87,0.00,OVC,,0.00,349.0,WeatherDisplay:10.37,2013-08-31 13:33:00,
2013-08-31 08:38:00,80.4,75.8,29.98,WSW,245,12.7,12.7,86,0.00,OVC,,0.00,365.0,WeatherDisplay:10.37,2013-08-31 13:38:00,
2013-08-31 08:43:00,80.8,76.2,29.98,SSW,197,8.1,8.1,86,0.00,OVC,,0.00,383.0,WeatherDisplay:10.37,2013-08-31 13:43:00,
2013-08-31 08:48:00,81.2,76.3,29.98,SSW,197,10.4,10.4,85,0.00,OVC,,0.00,401.0,WeatherDisplay:10.37,2013-08-31 13:48:00,
2013-08-31 08:53:00,81.6,76.3,29.98,South,183,10.4,10.4,84,0.00,OVC,,0.00,417.0,WeatherDisplay:10.37,2013-08-31 13:53:00,
2013-08-31 08:58:00,82.1,76.1,29.98,South,175,13.8,13.8,82,0.00,OVC,,0.00,435.0,WeatherDisplay:10.37,2013-08-31 13:58:00,
2013-08-31 09:03:00,82.4,76.0,29.98,South,178,12.7,12.7,81,0.00,OVC,,0.00,450.0,WeatherDisplay:10.37,2013-08-31 14:03:00,
2013-08-31 09:08:00,82.8,76.0,29.98,South,186,13.8,13.8,80,0.00,OVC,,0.00,466.0,WeatherDisplay:10.37,2013-08-31 14:08:00,
2013-08-31 09:13:00,83.1,75.9,29.98,SSW,209,12.7,12.7,79,0.00,OVC,,0.00,484.0,WeatherDisplay:10.37,2013-08-31 14:13:00,
2013-08-31 09:18:00,83.5,75.9,29.98,SW,215,10.4,10.4,78,0.00,OVC,,0.00,501.0,WeatherDisplay:10.37,2013-08-31 14:18:00,
2013-08-31 09:23:00,84.0,76.0,29.98,SSW,199,9.9,9.9,77,0.00,OVC,,0.00,516.0,WeatherDisplay:10.37,2013-08-31 14:23:00,
2013-08-31 09:28:00,84.3,75.5,29.98,SSW,196,12.7,12.7,75,0.00,OVC,,0.00,533.0,WeatherDisplay:10.37,2013-08-31 14:28:00,
2013-08-31 09:33:00,84.5,75.3,29.98,SW,224,9.2,9.2,74,0.00,OVC,,0.00,548.0,WeatherDisplay:10.37,2013-08-31 14:33:00,
2013-08-31 09:38:00,84.9,75.7,29.98,SW,216,8.1,8.9,74,0.00,OVC,,0.00,563.0,WeatherDisplay:10.37,2013-08-31 14:38:00,
2013-08-31 09:43:00,85.2,75.6,29.98,South,191,9.6,9.6,73,0.00,OVC,,0.00,578.0,WeatherDisplay:10.37,2013-08-31 14:43:00,
2013-08-31 09:48:00,85.7,75.6,29.98,SSW,202,10.4,10.4,72,0.00,OVC,,0.00,594.0,WeatherDisplay:10.37,2013-08-31 14:48:00,
2013-08-31 09:53:00,86.0,75.5,29.98,SSW,213,10.4,10.4,71,0.00,OVC,,0.00,609.0,WeatherDisplay:10.37,2013-08-31 14:53:00,
2013-08-31 09:58:00,86.4,75.5,29.98,SSW,198,11.7,11.7,70,0.00,OVC,,0.00,623.0,WeatherDisplay:10.37,2013-08-31 14:58:00,
2013-08-31 10:04:00,86.8,75.8,29.98,SW,226,9.6,9.6,70,0.00,OVC,,0.00,637.0,WeatherDisplay:10.37,2013-08-31 15:04:00,
2013-08-31 10:09:00,87.1,75.7,29.98,SSW,202,10.4,10.4,69,0.00,OVC,,0.00,653.0,WeatherDisplay:10.37,2013-08-31 15:09:00,
2013-08-31 10:14:00,87.5,75.6,29.98,SSE,163,5.8,7.3,68,0.00,OVC,,0.00,666.0,WeatherDisplay:10.37,2013-08-31 15:14:00,
2013-08-31 10:19:00,88.2,75.9,29.98,SSE,163,4.6,4.6,67,0.00,OVC,,0.00,674.0,WeatherDisplay:10.37,2013-08-31 15:19:00,
2013-08-31 10:24:00,88.6,75.8,29.97,SSW,200,8.1,8.1,66,0.00,OVC,,0.00,687.0,WeatherDisplay:10.37,2013-08-31 15:24:00,
2013-08-31 10:29:00,89.0,75.7,29.97,WSW,247,5.8,5.8,65,0.00,OVC,,0.00,702.0,WeatherDisplay:10.37,2013-08-31 15:29:00,
2013-08-31 10:34:00,89.3,75.5,29.97,South,170,8.1,8.1,64,0.00,OVC,,0.00,713.0,WeatherDisplay:10.37,2013-08-31 15:34:00,
2013-08-31 10:39:00,89.8,75.5,29.97,South,183,5.8,5.8,63,0.00,OVC,,0.00,724.0,WeatherDisplay:10.37,2013-08-31 15:39:00,
2013-08-31 10:44:00,90.4,75.1,29.97,SSW,211,5.8,5.8,61,0.00,OVC,,0.00,736.0,WeatherDisplay:10.37,2013-08-31 15:44:00,
2013-08-31 10:49:00,91.0,75.2,29.97,South,176,9.2,9.2,60,0.00,OVC,,0.00,747.0,WeatherDisplay:10.37,2013-08-31 15:49:00,
2013-08-31 10:54:00,91.8,74.9,29.97,SE,125,4.6,4.6,58,0.00,OVC,,0.00,757.0,WeatherDisplay:10.37,2013-08-31 15:54:00,
2013-08-31 10:59:00,92.7,75.2,29.97,SSW,193,9.2,9.2,57,0.00,OVC,,0.00,768.0,WeatherDisplay:10.37,2013-08-31 15:59:00,
2013-08-31 11:04:00,93.2,75.7,29.97,SSE,156,3.5,3.5,57,0.00,OVC,,0.00,777.0,WeatherDisplay:10.37,2013-08-31 16:04:00,
2013-08-31 11:09:00,93.6,74.5,29.97,South,190,4.6,4.6,54,0.00,OVC,,0.00,785.0,WeatherDisplay:10.37,2013-08-31 16:09:00,
2013-08-31 11:14:00,94.2,74.4,29.97,SSW,200,5.8,5.8,53,0.00,OVC,,0.00,794.0,WeatherDisplay:10.37,2013-08-31 16:14:00,
2013-08-31 11:19:00,94.4,74.1,29.97,SW,214,5.8,5.8,52,0.00,OVC,,0.00,799.0,WeatherDisplay:10.37,2013-08-31 16:19:00,
2013-08-31 11:24:00,95.0,74.6,29.97,WNW,296,3.5,3.5,52,0.00,OVC,,0.00,810.0,WeatherDisplay:10.37,2013-08-31 16:24:00,
2013-08-31 11:29:00,95.7,74.7,29.97,WSW,245,9.2,9.2,51,0.00,OVC,,0.00,815.0,WeatherDisplay:10.37,2013-08-31 16:29:00,
2013-08-31 11:34:00,95.8,73.6,29.97,SSW,205,6.9,6.9,49,0.00,OVC,,0.00,821.0,WeatherDisplay:10.37,2013-08-31 16:34:00,
2013-08-31 11:39:00,95.9,73.1,29.96,WSW,238,5.8,5.8,48,0.00,OVC,,0.00,827.0,WeatherDisplay:10.37,2013-08-31 16:39:00,
2013-08-31 11:44:00,96.3,74.0,29.96,SSE,163,2.3,2.3,49,0.00,OVC,,0.00,833.0,WeatherDisplay:10.37,2013-08-31 16:44:00,
2013-08-31 11:49:00,96.8,74.5,29.96,SSW,205,3.5,3.5,49,0.00,OVC,,0.00,837.0,WeatherDisplay:10.37,2013-08-31 16:49:00,
2013-08-31 11:54:00,96.3,74.0,29.96,SW,214,8.1,8.1,49,0.00,OVC,,0.00,845.0,WeatherDisplay:10.37,2013-08-31 16:54:00,
2013-08-31 11:59:00,96.3,73.4,29.96,WSW,241,8.1,8.1,48,0.00,OVC,,0.00,849.0,WeatherDisplay:10.37,2013-08-31 16:59:00,
2013-08-31 12:04:00,96.2,73.9,29.95,SW,232,5.8,5.8,49,0.00,OVC,,0.00,852.0,WeatherDisplay:10.37,2013-08-31 17:04:00,
2013-08-31 12:09:00,96.4,73.5,29.95,SW,222,4.6,4.6,48,0.00,OVC,,0.00,856.0,WeatherDisplay:10.37,2013-08-31 17:09:00,
2013-08-31 12:14:00,98.3,73.3,29.95,SSW,203,8.1,8.1,45,0.00,OVC,,0.00,867.0,WeatherDisplay:10.37,2013-08-31 17:14:00,
2013-08-31 12:19:00,98.0,72.4,29.95,WSW,247,6.9,6.9,44,0.00,OVC,,0.00,865.0,WeatherDisplay:10.37,2013-08-31 17:19:00,
2013-08-31 12:24:00,98.0,73.0,29.95,SW,219,7.2,7.2,45,0.00,OVC,,0.00,867.0,WeatherDisplay:10.37,2013-08-31 17:24:00,
2013-08-31 12:29:00,98.2,69.7,29.94,SW,228,9.3,9.3,40,0.00,OVC,,0.00,871.0,WeatherDisplay:10.37,2013-08-31 17:29:00,
2013-08-31 12:34:00,98.4,69.2,29.94,WSW,251,5.8,5.8,39,0.00,OVC,,0.00,867.0,WeatherDisplay:10.37,2013-08-31 17:34:00,
2013-08-31 12:39:00,99.0,71.9,29.94,SSW,208,10.4,10.4,42,0.00,OVC,,0.00,866.0,WeatherDisplay:10.37,2013-08-31 17:39:00,
2013-08-31 12:44:00,99.0,71.9,29.94,South,184,8.1,8.1,42,0.00,OVC,,0.00,872.0,WeatherDisplay:10.37,2013-08-31 17:44:00,
2013-08-31 12:49:00,99.6,71.7,29.94,SE,125,4.6,4.6,41,0.00,OVC,,0.00,879.0,WeatherDisplay:10.37,2013-08-31 17:49:00,
2013-08-31 12:54:00,101.7,70.6,29.93,South,189,10.4,10.4,37,0.00,OVC,,0.00,871.0,WeatherDisplay:10.37,2013-08-31 17:54:00,
2013-08-31 12:59:00,102.0,69.2,29.93,South,184,13.8,13.8,35,0.00,CLR,,0.00,874.0,WeatherDisplay:10.37,2013-08-31 17:59:00,
2013-08-31 13:04:00,102.6,69.7,29.93,SSE,166,12.7,12.7,35,0.00,CLR,,0.00,876.0,WeatherDisplay:10.37,2013-08-31 18:04:00,
2013-08-31 13:09:00,102.6,68.0,29.94,ESE,117,8.1,8.1,33,0.00,CLR,,0.00,881.0,WeatherDisplay:10.37,2013-08-31 18:09:00,
2013-08-31 13:14:00,103.9,70.0,29.93,SSE,167,4.6,4.6,34,0.00,CLR,,0.00,878.0,WeatherDisplay:10.37,2013-08-31 18:14:00,
2013-08-31 13:19:00,103.9,67.3,29.93,SSE,149,9.0,9.0,31,0.00,CLR,,0.00,880.0,WeatherDisplay:10.37,2013-08-31 18:19:00,
2013-08-31 13:24:00,103.9,68.2,29.93,West,263,6.9,6.9,32,0.00,CLR,,0.00,879.0,WeatherDisplay:10.37,2013-08-31 18:24:00,
2013-08-31 13:29:00,103.5,67.0,29.93,SE,141,8.1,8.1,31,0.00,CLR,,0.00,879.0,WeatherDisplay:10.37,2013-08-31 18:29:00,
2013-08-31 13:34:00,101.8,67.3,29.93,NNE,16,6.9,6.9,33,0.00,CLR,,0.00,880.0,WeatherDisplay:10.37,2013-08-31 18:34:00,
2013-08-31 13:39:00,102.6,68.9,29.93,SW,224,3.5,3.5,34,0.00,CLR,,0.00,875.0,WeatherDisplay:10.37,2013-08-31 18:39:00,
2013-08-31 13:44:00,103.9,70.0,29.92,SSE,163,10.4,10.4,34,0.00,CLR,,0.00,893.0,WeatherDisplay:10.37,2013-08-31 18:44:00,
2013-08-31 13:49:00,104.0,68.3,29.92,SSE,155,10.4,10.4,32,0.00,CLR,,0.00,906.0,WeatherDisplay:10.37,2013-08-31 18:49:00,
2013-08-31 13:54:00,102.8,66.4,29.92,ESE,113,5.8,5.8,31,0.00,FEW,,0.00,142.0,WeatherDisplay:10.37,2013-08-31 18:54:00,
2013-08-31 13:59:00,102.7,68.1,29.92,ESE,121,5.8,5.8,33,0.00,CLR,,0.00,925.0,WeatherDisplay:10.37,2013-08-31 18:59:00,
2013-08-31 14:04:00,102.5,67.9,29.92,SSW,207,3.5,3.5,33,0.00,CLR,,0.00,893.0,WeatherDisplay:10.37,2013-08-31 19:04:00,
2013-08-31 14:09:00,103.7,70.7,29.92,SE,145,9.2,9.2,35,0.00,CLR,,0.00,171.0,WeatherDisplay:10.37,2013-08-31 19:09:00,
2013-08-31 14:14:00,103.5,68.8,29.92,SSW,207,6.6,6.6,33,0.00,FEW,,0.00,192.0,WeatherDisplay:10.37,2013-08-31 19:14:00,
2013-08-31 14:19:00,102.7,69.0,29.91,South,175,6.6,6.6,34,0.00,CLR,,0.00,213.0,WeatherDisplay:10.37,2013-08-31 19:19:00,
2013-08-31 14:24:00,102.0,69.2,29.91,SSW,203,6.9,6.9,35,0.00,CLR,,0.00,795.0,WeatherDisplay:10.37,2013-08-31 19:24:00,
2013-08-31 14:29:00,102.4,69.5,29.91,South,177,4.6,4.6,35,0.00,SCT,,0.00,182.0,WeatherDisplay:10.37,2013-08-31 19:29:00,
2013-08-31 14:34:00,101.9,68.3,29.91,SSE,147,4.6,4.6,34,0.00,CLR,,0.00,905.0,WeatherDisplay:10.37,2013-08-31 19:34:00,
2013-08-31 14:39:00,103.0,69.2,29.91,SSE,164,12.0,12.0,34,0.00,CLR,,0.00,914.0,WeatherDisplay:10.37,2013-08-31 19:39:00,
2013-08-31 14:44:00,104.0,69.2,29.90,SSE,168,10.8,10.8,33,0.00,CLR,,0.00,907.0,WeatherDisplay:10.37,2013-08-31 19:44:00,
2013-08-31 14:49:00,103.6,67.0,29.90,SE,130,8.1,8.1,31,0.00,CLR,,0.00,901.0,WeatherDisplay:10.37,2013-08-31 19:49:00,
2013-08-31 14:54:00,103.4,67.8,29.90,SW,235,6.9,6.9,32,0.00,CLR,,0.00,878.0,WeatherDisplay:10.37,2013-08-31 19:54:00,
2013-08-31 14:59:00,103.7,68.1,29.90,East,92,5.8,5.8,32,0.00,CLR,,0.00,855.0,WeatherDisplay:10.37,2013-08-31 19:59:00,
2013-08-31 15:04:00,104.0,68.3,29.90,SSE,154,8.1,8.1,32,0.00,CLR,,0.00,842.0,WeatherDisplay:10.37,2013-08-31 20:04:00,
2013-08-31 15:09:00,104.1,68.4,29.89,SE,146,5.8,5.8,32,0.00,BKN,,0.00,194.0,WeatherDisplay:10.37,2013-08-31 20:09:00,
2013-08-31 15:14:00,103.1,67.5,29.89,East,87,3.9,4.0,32,0.00,CLR,,0.00,853.0,WeatherDisplay:10.37,2013-08-31 20:14:00,
2013-08-31 15:19:00,104.6,69.7,29.89,ESE,114,9.2,9.2,33,0.00,CLR,,0.00,834.0,WeatherDisplay:10.37,2013-08-31 20:19:00,
2013-08-31 15:25:00,104.7,68.9,29.89,SSE,154,10.4,10.4,32,0.00,CLR,,0.00,371.0,WeatherDisplay:10.37,2013-08-31 20:25:00,
2013-08-31 15:30:00,104.5,67.8,29.89,East,91,6.9,6.9,31,0.00,BKN,,0.00,242.0,WeatherDisplay:10.37,2013-08-31 20:30:00,
2013-08-31 15:35:00,103.3,67.7,29.89,ESE,110,8.1,8.1,32,0.00,SCT,,0.00,827.0,WeatherDisplay:10.37,2013-08-31 20:35:00,
2013-08-31 15:40:00,104.3,68.6,29.88,SE,127,9.2,9.2,32,0.00,CLR,,0.00,817.0,WeatherDisplay:10.37,2013-08-31 20:40:00,
2013-08-31 15:45:00,103.6,67.0,29.88,ENE,60,8.1,8.1,31,0.00,CLR,,0.00,796.0,WeatherDisplay:10.37,2013-08-31 20:45:00,
2013-08-31 15:50:00,104.3,67.6,29.88,SE,128,6.3,6.3,31,0.00,CLR,,0.00,752.0,WeatherDisplay:10.37,2013-08-31 20:50:00,
2013-08-31 15:55:00,104.1,68.4,29.88,SE,142,10.0,14.0,32,0.00,CLR,,0.00,752.0,WeatherDisplay:10.37,2013-08-31 20:55:00,
2013-08-31 16:00:00,104.6,67.9,29.88,SSE,154,8.0,14.0,31,0.00,CLR,,0.00,762.0,WeatherDisplay:10.37,2013-08-31 21:00:00,
2013-08-31 16:05:00,104.9,68.2,29.88,South,178,10.4,10.4,31,0.00,CLR,,0.00,733.0,WeatherDisplay:10.37,2013-08-31 21:05:00,
2013-08-31 16:10:00,104.9,69.1,29.88,South,186,9.2,9.2,32,0.00,CLR,,0.00,692.0,WeatherDisplay:10.37,2013-08-31 21:10:00,
2013-08-31 16:15:00,105.8,69.0,29.88,South,177,6.0,8.0,31,0.00,OVC,,0.00,159.0,WeatherDisplay:10.37,2013-08-31 21:15:00,
2013-08-31 16:20:00,105.8,68.9,29.87,SSE,164,3.9,3.9,31,0.00,OVC,,0.00,148.0,WeatherDisplay:10.37,2013-08-31 21:20:00,
2013-08-31 16:25:00,105.3,68.5,29.87,SSE,154,3.0,7.0,31,0.00,OVC,,0.00,138.0,WeatherDisplay:10.37,2013-08-31 21:25:00,
2013-08-31 16:30:00,104.2,68.5,29.86,SE,143,6.0,12.0,32,0.00,FEW,,0.00,616.0,WeatherDisplay:10.37,2013-08-31 21:30:00,
2013-08-31 16:35:00,103.8,68.1,29.87,SE,134,13.8,13.8,32,0.00,OVC,,0.00,137.0,WeatherDisplay:10.37,2013-08-31 21:35:00,
2013-08-31 16:40:00,103.8,68.1,29.87,East,95,6.9,6.9,32,0.00,SCT,,0.00,583.0,WeatherDisplay:10.37,2013-08-31 21:40:00,
2013-08-31 16:45:00,103.9,68.2,29.86,SE,135,10.0,16.0,32,0.00,SCT,,0.00,565.0,WeatherDisplay:10.37,2013-08-31 21:45:00,
2013-08-31 16:50:00,103.7,68.1,29.87,SSW,199,11.5,11.5,32,0.00,OVC,,0.00,130.0,WeatherDisplay:10.37,2013-08-31 21:50:00,
2013-08-31 16:55:00,103.3,68.6,29.86,SSE,153,6.0,12.0,33,0.00,OVC,,0.00,128.0,WeatherDisplay:10.37,2013-08-31 21:55:00,
2013-08-31 17:00:00,103.1,68.4,29.86,SSW,192,9.2,9.2,33,0.00,OVC,,0.00,116.0,WeatherDisplay:10.37,2013-08-31 22:00:00,
2013-08-31 17:05:00,102.6,68.0,29.86,SSE,154,6.0,13.0,33,0.00,OVC,,0.00,112.0,WeatherDisplay:10.37,2013-08-31 22:05:00,
2013-08-31 17:10:00,101.8,68.1,29.86,SSE,151,9.0,16.0,34,0.00,OVC,,0.00,125.0,WeatherDisplay:10.37,2013-08-31 22:10:00,
2013-08-31 17:15:00,101.3,67.7,29.86,SSE,149,8.0,14.0,34,0.00,OVC,,0.00,129.0,WeatherDisplay:10.37,2013-08-31 22:15:00,
2013-08-31 17:20:00,101.3,68.6,29.87,SSE,160,8.1,8.1,35,0.00,BKN,,0.00,434.0,WeatherDisplay:10.37,2013-08-31 22:20:00,
2013-08-31 17:25:00,101.3,67.8,29.87,SSE,154,9.0,13.0,34,0.00,BKN,,0.00,433.0,WeatherDisplay:10.37,2013-08-31 22:25:00,
2013-08-31 17:30:00,101.8,68.2,29.80,SSE,156,8.1,8.1,34,0.00,BKN,,0.00,417.0,WeatherDisplay:10.37,2013-08-31 22:30:00,
2013-08-31 17:35:00,102.2,67.6,29.83,SSE,150,9.0,14.0,33,0.00,BKN,,0.00,406.0,WeatherDisplay:10.37,2013-08-31 22:35:00,
2013-08-31 17:40:00,102.5,68.8,29.80,SSE,151,11.5,11.5,34,0.00,BKN,,0.00,387.0,WeatherDisplay:10.37,2013-08-31 22:40:00,
2013-08-31 17:45:00,102.5,67.9,29.84,SE,142,10.4,10.4,33,0.00,BKN,,0.00,375.0,WeatherDisplay:10.37,2013-08-31 22:45:00,
2013-08-31 17:50:00,102.6,68.0,29.82,SE,137,8.0,10.0,33,0.00,OVC,,0.00,356.0,WeatherDisplay:10.37,2013-08-31 22:50:00,
2013-08-31 17:55:00,102.9,68.2,29.81,SE,133,5.0,10.0,33,0.00,OVC,,0.00,344.0,WeatherDisplay:10.37,2013-08-31 22:55:00,
2013-08-31 18:00:00,103.0,68.3,29.86,SE,132,10.4,10.4,33,0.00,OVC,,0.00,326.0,WeatherDisplay:10.37,2013-08-31 23:00:00,
2013-08-31 18:05:00,103.0,67.4,29.82,SSE,148,7.0,12.0,32,0.00,OVC,,0.00,309.0,WeatherDisplay:10.37,2013-08-31 23:05:00,
2013-08-31 18:10:00,102.8,68.2,29.80,SSE,163,9.2,9.2,33,0.00,OVC,,0.00,297.0,WeatherDisplay:10.37,2013-08-31 23:10:00,
2013-08-31 18:15:00,102.8,68.2,29.80,SSE,166,8.1,8.1,33,0.00,OVC,,0.00,284.0,WeatherDisplay:10.37,2013-08-31 23:15:00,
2013-08-31 18:20:00,102.8,69.0,29.82,SSE,159,5.0,8.0,34,0.00,OVC,,0.00,266.0,WeatherDisplay:10.37,2013-08-31 23:20:00,
2013-08-31 18:25:00,102.8,68.2,29.82,SSE,156,5.0,10.0,33,0.00,OVC,,0.00,255.0,WeatherDisplay:10.37,2013-08-31 23:25:00,
2013-08-31 18:31:00,102.7,68.1,29.85,SSE,148,11.5,11.5,33,0.00,OVC,,0.00,235.0,WeatherDisplay:10.37,2013-08-31 23:31:00,
2013-08-31 18:36:00,102.5,67.9,29.86,South,184,10.4,10.4,33,0.00,OVC,,0.00,218.0,WeatherDisplay:10.37,2013-08-31 23:36:00,
2013-08-31 18:41:00,102.2,67.6,29.78,South,181,13.8,13.8,33,0.00,OVC,,0.00,201.0,WeatherDisplay:10.37,2013-08-31 23:41:00,
2013-08-31 18:46:00,101.9,67.4,29.78,South,191,12.7,12.7,33,0.00,OVC,,0.00,188.0,WeatherDisplay:10.37,2013-08-31 23:46:00,
2013-08-31 18:51:00,101.6,68.0,29.85,SSE,153,6.9,6.9,34,0.00,OVC,,0.00,175.0,WeatherDisplay:10.37,2013-08-31 23:51:00,
2013-08-31 18:56:00,101.4,67.8,29.85,SSE,152,7.5,7.5,34,0.00,OVC,,0.00,157.0,WeatherDisplay:10.37,2013-08-31 23:56:00,
2013-08-31 19:01:00,101.0,68.3,29.86,SE,143,10.4,10.4,35,0.00,OVC,,0.00,144.0,WeatherDisplay:10.37,2013-09-01 00:01:00,
2013-08-31 19:06:00,100.7,68.0,29.86,South,182,8.1,8.1,35,0.00,OVC,,0.00,129.0,WeatherDisplay:10.37,2013-09-01 00:06:00,
2013-08-31 19:11:00,100.4,67.8,29.86,SSE,149,10.4,10.4,35,0.00,OVC,,0.00,114.0,WeatherDisplay:10.37,2013-09-01 00:11:00,
2013-08-31 19:16:00,100.0,68.3,29.86,SSE,158,8.1,8.1,36,0.00,OVC,,0.00,98.0,WeatherDisplay:10.37,2013-09-01 00:16:00,
2013-08-31 19:21:00,99.6,67.9,29.86,SSE,147,9.2,9.2,36,0.00,OVC,,0.00,83.0,WeatherDisplay:10.37,2013-09-01 00:21:00,
2013-08-31 19:26:00,99.2,68.4,29.87,SE,142,9.0,9.0,37,0.00,OVC,,0.00,67.0,WeatherDisplay:10.37,2013-09-01 00:26:00,
2013-08-31 19:31:00,98.8,68.0,29.87,SE,143,9.2,9.2,37,0.00,OVC,,0.00,51.0,WeatherDisplay:10.37,2013-09-01 00:31:00,
2013-08-31 19:36:00,98.4,67.6,29.87,SSE,153,10.4,10.4,37,0.00,OVC,,0.00,37.0,WeatherDisplay:10.37,2013-09-01 00:36:00,
2013-08-31 19:41:00,98.0,68.1,29.87,SSE,148,8.1,8.1,38,0.00,OVC,,0.00,24.0,WeatherDisplay:10.37,2013-09-01 00:41:00,
2013-08-31 19:46:00,97.7,67.8,29.86,SSE,147,10.4,10.4,38,0.00,OVC,,0.00,14.0,WeatherDisplay:10.37,2013-09-01 00:46:00,
2013-08-31 19:51:00,97.3,67.4,29.87,SSE,149,8.1,8.1,38,0.00,OVC,,0.00,8.0,WeatherDisplay:10.37,2013-09-01 00:51:00,
2013-08-31 19:56:00,97.0,67.9,29.87,SE,137,9.2,9.2,39,0.00,OVC,,0.00,5.0,WeatherDisplay:10.37,2013-09-01 00:56:00,
2013-08-31 20:01:00,96.6,68.3,29.87,SSE,155,8.1,8.1,40,0.00,CLR,,0.00,3.0,WeatherDisplay:10.37,2013-09-01 01:01:00,
2013-08-31 20:06:00,96.2,68.0,29.87,SSE,156,5.8,5.8,40,0.00,CLR,,0.00,2.0,WeatherDisplay:10.37,2013-09-01 01:06:00,
2013-08-31 20:11:00,95.8,67.6,29.87,SSE,147,6.9,6.9,40,0.00,CLR,,0.00,2.0,WeatherDisplay:10.37,2013-09-01 01:11:00,
2013-08-31 20:16:00,95.4,67.2,29.87,SSE,150,5.8,5.8,40,0.00,CLR,,0.00,1.0,WeatherDisplay:10.37,2013-09-01 01:16:00,
2013-08-31 20:21:00,95.0,67.6,29.87,SE,143,6.0,6.0,41,0.00,CLR,,0.00,1.0,WeatherDisplay:10.37,2013-09-01 01:21:00,
2013-08-31 20:26:00,94.7,67.3,29.87,SSE,150,5.8,5.8,41,0.00,CLR,,0.00,1.0,WeatherDisplay:10.37,2013-09-01 01:26:00,
2013-08-31 20:31:00,94.4,67.8,29.87,SE,144,6.9,6.9,42,0.00,CLR,,0.00,1.0,WeatherDisplay:10.37,2013-09-01 01:31:00,
2013-08-31 20:36:00,94.2,68.3,29.88,SE,144,8.1,8.1,43,0.00,CLR,,0.00,1.0,WeatherDisplay:10.37,2013-09-01 01:36:00,
2013-08-31 20:41:00,93.9,68.0,29.88,SSE,149,5.8,5.8,43,0.00,CLR,,0.00,1.0,WeatherDisplay:10.37,2013-09-01 01:41:00,
2013-08-31 20:46:00,93.6,67.7,29.88,SE,146,6.9,6.9,43,0.00,CLR,,0.00,1.0,WeatherDisplay:10.37,2013-09-01 01:46:00,
2013-08-31 20:51:00,93.3,68.1,29.88,SSE,151,5.8,5.8,44,0.00,CLR,,0.00,1.0,WeatherDisplay:10.37,2013-09-01 01:51:00,
2013-08-31 20:56:00,93.1,68.0,29.88,SSE,156,5.8,5.8,44,0.00,CLR,,0.00,1.0,WeatherDisplay:10.37,2013-09-01 01:56:00,
2013-08-31 21:01:00,92.8,67.7,29.89,SSE,150,5.8,5.8,44,0.00,CLR,,0.00,1.0,WeatherDisplay:10.37,2013-09-01 02:01:00,
2013-08-31 21:06:00,92.5,67.4,29.88,SSE,168,4.6,4.6,44,0.00,CLR,,0.00,1.0,WeatherDisplay:10.37,2013-09-01 02:06:00,
2013-08-31 21:11:00,92.3,67.2,29.88,South,171,5.7,5.7,44,0.00,CLR,,0.00,1.0,WeatherDisplay:10.37,2013-09-01 02:11:00,
2013-08-31 21:16:00,92.2,66.5,29.88,SSE,163,5.8,5.8,43,0.00,CLR,,0.00,1.0,WeatherDisplay:10.37,2013-09-01 02:16:00,
2013-08-31 21:21:00,92.1,67.1,29.89,SSE,163,6.9,6.9,44,0.00,CLR,,0.00,1.0,WeatherDisplay:10.37,2013-09-01 02:21:00,
2013-08-31 21:26:00,91.9,66.2,29.89,South,172,9.2,9.2,43,0.00,CLR,,0.00,1.0,WeatherDisplay:10.37,2013-09-01 02:26:00,
2013-08-31 21:31:00,91.7,66.7,29.89,SSE,151,6.9,6.9,44,0.00,CLR,,0.00,1.0,WeatherDisplay:10.37,2013-09-01 02:31:00,
2013-08-31 21:36:00,91.5,66.5,29.89,SSE,167,6.9,6.9,44,0.00,CLR,,0.00,1.0,WeatherDisplay:10.37,2013-09-01 02:36:00,
2013-08-31 21:41:00,91.3,66.3,29.89,South,183,6.9,6.9,44,0.00,CLR,,0.00,1.0,WeatherDisplay:10.37,2013-09-01 02:41:00,
2013-08-31 21:46:00,91.3,66.3,29.89,South,176,6.9,6.9,44,0.00,CLR,,0.00,1.0,WeatherDisplay:10.37,2013-09-01 02:46:00,
2013-08-31 21:51:00,91.2,66.2,29.89,South,189,8.1,8.1,44,0.00,CLR,,0.00,1.0,WeatherDisplay:10.37,2013-09-01 02:51:00,
2013-08-31 21:56:00,90.9,66.6,29.89,SSE,151,5.8,5.8,45,0.00,CLR,,0.00,1.0,WeatherDisplay:10.37,2013-09-01 02:56:00,
2013-08-31 22:01:00,90.7,67.1,29.89,SSE,153,8.1,8.1,46,0.00,CLR,,0.00,1.0,WeatherDisplay:10.37,2013-09-01 03:01:00,
2013-08-31 22:06:00,90.4,66.8,29.89,SSE,156,8.1,8.1,46,0.00,CLR,,0.00,1.0,WeatherDisplay:10.37,2013-09-01 03:06:00,
2013-08-31 22:11:00,90.2,66.6,29.89,SSE,147,4.6,4.6,46,0.00,CLR,,0.00,1.0,WeatherDisplay:10.37,2013-09-01 03:11:00,
2013-08-31 22:16:00,90.0,66.4,29.89,SSE,167,4.6,4.6,46,0.00,CLR,,0.00,1.0,WeatherDisplay:10.37,2013-09-01 03:16:00,
2013-08-31 22:25:00,89.8,66.3,29.89,SSE,165,5.0,10.0,46,0.00,CLR,,0.00,0.0,WeatherDisplay:10.37,2013-09-01 03:25:00,
2013-08-31 22:30:00,89.8,66.3,29.89,South,174,6.9,6.9,46,0.00,CLR,,0.00,1.0,WeatherDisplay:10.37,2013-09-01 03:30:00,
2013-08-31 22:35:00,89.6,66.7,29.89,SSE,166,3.0,7.0,47,0.00,CLR,,0.00,0.0,WeatherDisplay:10.37,2013-09-01 03:35:00,
2013-08-31 22:40:00,89.4,66.5,29.89,SSE,162,3.0,6.0,47,0.00,CLR,,0.00,1.0,WeatherDisplay:10.37,2013-09-01 03:40:00,
2013-08-31 22:45:00,89.3,66.4,29.89,SSE,158,3.0,6.0,47,0.00,CLR,,0.00,0.0,WeatherDisplay:10.37,2013-09-01 03:45:00,
2013-08-31 22:50:00,89.1,66.9,29.89,SE,144,6.9,6.9,48,0.00,CLR,,0.00,1.0,WeatherDisplay:10.37,2013-09-01 03:50:00,
2013-08-31 22:55:00,88.9,66.7,29.89,SSE,160,5.8,5.8,48,0.00,CLR,,0.00,1.0,WeatherDisplay:10.37,2013-09-01 03:55:00,
2013-08-31 23:00:00,88.7,67.1,29.89,SSE,163,5.8,5.8,49,0.00,CLR,,0.00,2.0,WeatherDisplay:10.37,2013-09-01 04:00:00,
2013-08-31 23:01:00,88.6,67.0,29.89,SSE,160,4.6,4.6,49,0.00,CLR,,0.00,0.0,WeatherDisplay:10.37,2013-09-01 04:01:00,
2013-08-31 23:02:00,88.6,67.0,29.89,SSE,165,4.6,4.6,49,0.00,CLR,,0.00,1.0,WeatherDisplay:10.37,2013-09-01 04:02:00,
2013-08-31 23:07:00,88.4,66.8,29.89,SSE,149,6.9,6.9,49,0.00,CLR,,0.00,2.0,WeatherDisplay:10.37,2013-09-01 04:07:00,
2013-08-31 23:12:00,88.2,67.2,29.89,SSE,151,5.8,5.8,50,0.00,CLR,,0.00,1.0,WeatherDisplay:10.37,2013-09-01 04:12:00,
2013-08-31 23:17:00,88.0,67.0,29.89,South,172,5.8,5.8,50,0.00,CLR,,0.00,1.0,WeatherDisplay:10.37,2013-09-01 04:17:00,
2013-08-31 23:22:00,87.8,66.8,29.89,SSE,154,5.8,5.8,50,0.00,CLR,,0.00,1.0,WeatherDisplay:10.37,2013-09-01 04:22:00,
2013-08-31 23:27:00,87.7,66.8,29.89,SSE,166,5.8,5.8,50,0.00,CLR,,0.00,1.0,WeatherDisplay:10.37,2013-09-01 04:27:00,
2013-08-31 23:32:00,87.6,67.2,29.89,SSE,153,6.9,6.9,51,0.00,CLR,,0.00,1.0,WeatherDisplay:10.37,2013-09-01 04:32:00,
2013-08-31 23:37:00,87.5,67.1,29.89,SSE,164,5.8,5.8,51,0.00,CLR,,0.00,1.0,WeatherDisplay:10.37,2013-09-01 04:37:00,
2013-08-31 23:42:00,87.5,67.1,29.88,South,176,7.8,7.8,51,0.00,CLR,,0.00,1.0,WeatherDisplay:10.37,2013-09-01 04:42:00,
2013-08-31 23:47:00,87.5,67.7,29.88,SSE,159,6.9,6.9,52,0.00,CLR,,0.00,1.0,WeatherDisplay:10.37,2013-09-01 04:47:00,
2013-08-31 23:52:00,87.4,67.6,29.89,South,171,8.1,8.1,52,0.00,CLR,,0.00,1.0,WeatherDisplay:10.37,2013-09-01 04:52:00,
2013-08-31 23:57:00,87.4,67.6,29.88,SSE,163,6.9,6.9,52,0.00,CLR,,0.00,1.0,WeatherDisplay:10.37,2013-09-01 04:57:00,